sensor_id;sensor_type;location;lat;lon;timestamp;temperature;humidity
3564;DHT22;1796;52.388;13.096;2023-02-11T00:00:14;2.30;99.90
3564;DHT22;1796;52.388;13.096;2023-02-11T00:02:41;2.30;99.90
3564;DHT22;1796;52.388;13.096;2023-02-11T00:05:08;2.30;99.90
3564;DHT22;1796;52.388;13.096;2023-02-11T00:07:37;2.20;99.90
3564;DHT22;1796;52.388;13.096;2023-02-11T00:10:04;2.30;99.90
3564;DHT22;1796;52.388;13.096;2023-02-11T00:12:32;2.30;99.90
3564;DHT22;1796;52.388;13.096;2023-02-11T00:14:59;2.30;99.90
3564;DHT22;1796;52.388;13.096;2023-02-11T00:17:26;2.30;99.90
3564;DHT22;1796;52.388;13.096;2023-02-11T00:19:53;2.30;99.90
3564;DHT22;1796;52.388;13.096;2023-02-11T00:22:20;2.40;99.90
3564;DHT22;1796;52.388;13.096;2023-02-11T00:24:48;2.40;99.90
3564;DHT22;1796;52.388;13.096;2023-02-11T00:27:15;2.50;99.90
3564;DHT22;1796;52.388;13.096;2023-02-11T00:29:42;2.60;99.90
3564;DHT22;1796;52.388;13.096;2023-02-11T00:32:09;2.70;99.90
3564;DHT22;1796;52.388;13.096;2023-02-11T00:34:36;2.70;99.90
3564;DHT22;1796;52.388;13.096;2023-02-11T00:37:03;2.80;99.90
3564;DHT22;1796;52.388;13.096;2023-02-11T00:39:31;2.90;99.90
3564;DHT22;1796;52.388;13.096;2023-02-11T00:41:59;2.90;99.90
3564;DHT22;1796;52.388;13.096;2023-02-11T00:44:26;2.80;99.90
3564;DHT22;1796;52.388;13.096;2023-02-11T00:46:53;2.80;99.90
3564;DHT22;1796;52.388;13.096;2023-02-11T00:49:20;2.90;99.90
3564;DHT22;1796;52.388;13.096;2023-02-11T00:51:46;2.90;99.90
3564;DHT22;1796;52.388;13.096;2023-02-11T00:54:14;2.90;99.90
3564;DHT22;1796;52.388;13.096;2023-02-11T00:56:41;2.90;99.90
3564;DHT22;1796;52.388;13.096;2023-02-11T00:59:09;2.90;99.90
3564;DHT22;1796;52.388;13.096;2023-02-11T01:01:36;2.90;99.90
3564;DHT22;1796;52.388;13.096;2023-02-11T01:04:03;2.90;99.90
3564;DHT22;1796;52.388;13.096;2023-02-11T01:06:30;2.90;99.90
3564;DHT22;1796;52.388;13.096;2023-02-11T01:08:56;3.00;99.90
3564;DHT22;1796;52.388;13.096;2023-02-11T01:11:23;2.90;99.90
3564;DHT22;1796;52.388;13.096;2023-02-11T01:13:50;3.00;99.90
3564;DHT22;1796;52.388;13.096;2023-02-11T01:16:19;2.90;99.90
3564;DHT22;1796;52.388;13.096;2023-02-11T01:18:46;2.90;99.90
3564;DHT22;1796;52.388;13.096;2023-02-11T01:21:14;3.00;99.90
3564;DHT22;1796;52.388;13.096;2023-02-11T01:23:41;3.10;99.90
3564;DHT22;1796;52.388;13.096;2023-02-11T01:26:08;3.10;99.90
3564;DHT22;1796;52.388;13.096;2023-02-11T01:28:35;3.10;99.90
3564;DHT22;1796;52.388;13.096;2023-02-11T01:31:02;3.10;99.90
3564;DHT22;1796;52.388;13.096;2023-02-11T01:33:31;3.10;99.90
3564;DHT22;1796;52.388;13.096;2023-02-11T01:36:00;3.00;99.90
3564;DHT22;1796;52.388;13.096;2023-02-11T01:38:28;3.20;99.90
3564;DHT22;1796;52.388;13.096;2023-02-11T01:40:57;3.20;99.90
3564;DHT22;1796;52.388;13.096;2023-02-11T01:43:26;3.20;99.90
3564;DHT22;1796;52.388;13.096;2023-02-11T01:46:03;3.20;99.90
3564;DHT22;1796;52.388;13.096;2023-02-11T01:48:41;3.30;99.90
3564;DHT22;1796;52.388;13.096;2023-02-11T01:51:13;3.30;99.90
3564;DHT22;1796;52.388;13.096;2023-02-11T01:53:42;3.40;99.90
3564;DHT22;1796;52.388;13.096;2023-02-11T01:56:27;3.30;99.90
3564;DHT22;1796;52.388;13.096;2023-02-11T01:59:16;3.30;99.90
3564;DHT22;1796;52.388;13.096;2023-02-11T02:01:46;3.40;99.90
3564;DHT22;1796;52.388;13.096;2023-02-11T02:04:18;3.50;99.90
3564;DHT22;1796;52.388;13.096;2023-02-11T02:06:48;3.50;99.90
3564;DHT22;1796;52.388;13.096;2023-02-11T02:09:21;3.50;99.90
3564;DHT22;1796;52.388;13.096;2023-02-11T02:11:49;3.50;99.90
3564;DHT22;1796;52.388;13.096;2023-02-11T02:14:16;3.60;99.90
3564;DHT22;1796;52.388;13.096;2023-02-11T02:16:44;3.60;99.90
3564;DHT22;1796;52.388;13.096;2023-02-11T02:19:36;3.60;99.90
3564;DHT22;1796;52.388;13.096;2023-02-11T02:22:33;3.70;99.90
3564;DHT22;1796;52.388;13.096;2023-02-11T02:25:19;3.80;99.90
3564;DHT22;1796;52.388;13.096;2023-02-11T02:27:56;3.80;99.90
3564;DHT22;1796;52.388;13.096;2023-02-11T02:30:55;3.80;99.90
3564;DHT22;1796;52.388;13.096;2023-02-11T02:33:38;3.90;99.90
3564;DHT22;1796;52.388;13.096;2023-02-11T02:36:14;3.90;99.90
3564;DHT22;1796;52.388;13.096;2023-02-11T02:38:49;3.80;99.90
3564;DHT22;1796;52.388;13.096;2023-02-11T02:41:18;3.80;99.90
3564;DHT22;1796;52.388;13.096;2023-02-11T02:43:49;3.90;99.90
3564;DHT22;1796;52.388;13.096;2023-02-11T02:46:18;3.90;99.90
3564;DHT22;1796;52.388;13.096;2023-02-11T02:48:48;3.90;99.90
3564;DHT22;1796;52.388;13.096;2023-02-11T02:51:36;4.00;99.90
3564;DHT22;1796;52.388;13.096;2023-02-11T02:57:29;4.00;99.90
3564;DHT22;1796;52.388;13.096;2023-02-11T03:00:13;4.10;99.90
3564;DHT22;1796;52.388;13.096;2023-02-11T03:02:50;4.10;99.90
3564;DHT22;1796;52.388;13.096;2023-02-11T03:05:24;4.10;99.90
3564;DHT22;1796;52.388;13.096;2023-02-11T03:07:58;4.10;99.90
3564;DHT22;1796;52.388;13.096;2023-02-11T03:10:33;4.10;99.90
3564;DHT22;1796;52.388;13.096;2023-02-11T03:13:01;4.10;99.90
3564;DHT22;1796;52.388;13.096;2023-02-11T03:15:31;4.10;99.90
3564;DHT22;1796;52.388;13.096;2023-02-11T03:18:01;4.20;99.90
3564;DHT22;1796;52.388;13.096;2023-02-11T03:20:32;4.20;99.90
3564;DHT22;1796;52.388;13.096;2023-02-11T03:23:06;4.20;99.90
3564;DHT22;1796;52.388;13.096;2023-02-11T03:25:40;4.30;99.90
3564;DHT22;1796;52.388;13.096;2023-02-11T03:28:14;4.30;99.90
3564;DHT22;1796;52.388;13.096;2023-02-11T03:30:48;4.30;99.90
3564;DHT22;1796;52.388;13.096;2023-02-11T03:33:21;4.30;99.90
3564;DHT22;1796;52.388;13.096;2023-02-11T03:35:54;4.30;99.90
3564;DHT22;1796;52.388;13.096;2023-02-11T03:38:25;4.30;99.90
3564;DHT22;1796;52.388;13.096;2023-02-11T03:40:54;4.30;99.90
3564;DHT22;1796;52.388;13.096;2023-02-11T03:43:25;4.30;99.90
3564;DHT22;1796;52.388;13.096;2023-02-11T03:45:54;4.40;99.90
3564;DHT22;1796;52.388;13.096;2023-02-11T03:48:24;4.40;99.90
3564;DHT22;1796;52.388;13.096;2023-02-11T03:50:54;4.40;99.90
3564;DHT22;1796;52.388;13.096;2023-02-11T03:53:22;4.40;99.90
3564;DHT22;1796;52.388;13.096;2023-02-11T03:55:50;4.40;99.90
3564;DHT22;1796;52.388;13.096;2023-02-11T03:58:19;4.40;99.90
3564;DHT22;1796;52.388;13.096;2023-02-11T04:00:46;4.40;99.90
3564;DHT22;1796;52.388;13.096;2023-02-11T04:03:13;4.40;99.90
3564;DHT22;1796;52.388;13.096;2023-02-11T04:05:40;4.40;99.90
3564;DHT22;1796;52.388;13.096;2023-02-11T04:08:08;4.40;99.90
3564;DHT22;1796;52.388;13.096;2023-02-11T04:10:35;4.40;99.90
3564;DHT22;1796;52.388;13.096;2023-02-11T04:13:02;4.40;99.90
3564;DHT22;1796;52.388;13.096;2023-02-11T04:15:29;4.40;99.90
3564;DHT22;1796;52.388;13.096;2023-02-11T04:17:56;4.30;99.90
3564;DHT22;1796;52.388;13.096;2023-02-11T04:20:23;4.40;99.90
3564;DHT22;1796;52.388;13.096;2023-02-11T04:22:50;4.40;99.90
3564;DHT22;1796;52.388;13.096;2023-02-11T04:25:18;4.40;99.90
3564;DHT22;1796;52.388;13.096;2023-02-11T04:27:45;4.40;99.90
3564;DHT22;1796;52.388;13.096;2023-02-11T04:30:12;4.40;99.90
3564;DHT22;1796;52.388;13.096;2023-02-11T04:32:41;4.40;99.90
3564;DHT22;1796;52.388;13.096;2023-02-11T04:35:08;4.40;99.90
3564;DHT22;1796;52.388;13.096;2023-02-11T04:37:35;4.50;99.90
3564;DHT22;1796;52.388;13.096;2023-02-11T04:40:03;4.40;99.90
3564;DHT22;1796;52.388;13.096;2023-02-11T04:42:31;4.40;99.90
3564;DHT22;1796;52.388;13.096;2023-02-11T04:44:58;4.50;99.90
3564;DHT22;1796;52.388;13.096;2023-02-11T04:47:24;4.40;99.90
3564;DHT22;1796;52.388;13.096;2023-02-11T04:49:51;4.40;99.90
3564;DHT22;1796;52.388;13.096;2023-02-11T04:52:18;4.40;99.90
3564;DHT22;1796;52.388;13.096;2023-02-11T04:54:45;4.40;99.90
3564;DHT22;1796;52.388;13.096;2023-02-11T04:57:12;4.40;99.90
3564;DHT22;1796;52.388;13.096;2023-02-11T04:59:41;4.40;99.90
3564;DHT22;1796;52.388;13.096;2023-02-11T05:02:07;4.40;99.90
3564;DHT22;1796;52.388;13.096;2023-02-11T05:04:34;4.50;99.90
3564;DHT22;1796;52.388;13.096;2023-02-11T05:07:01;4.40;99.90
3564;DHT22;1796;52.388;13.096;2023-02-11T05:09:28;4.50;99.90
3564;DHT22;1796;52.388;13.096;2023-02-11T05:11:55;4.40;99.90
3564;DHT22;1796;52.388;13.096;2023-02-11T05:14:22;4.40;99.90
3564;DHT22;1796;52.388;13.096;2023-02-11T05:16:52;4.50;99.90
3564;DHT22;1796;52.388;13.096;2023-02-11T05:19:19;4.50;99.90
3564;DHT22;1796;52.388;13.096;2023-02-11T05:21:46;4.50;99.90
3564;DHT22;1796;52.388;13.096;2023-02-11T05:24:12;4.50;99.90
3564;DHT22;1796;52.388;13.096;2023-02-11T05:26:39;4.50;99.90
3564;DHT22;1796;52.388;13.096;2023-02-11T05:29:06;4.40;99.90
3564;DHT22;1796;52.388;13.096;2023-02-11T05:31:33;4.40;99.90
3564;DHT22;1796;52.388;13.096;2023-02-11T05:34:01;4.40;99.90
3564;DHT22;1796;52.388;13.096;2023-02-11T05:36:29;4.40;99.90
3564;DHT22;1796;52.388;13.096;2023-02-11T05:38:56;4.40;99.90
3564;DHT22;1796;52.388;13.096;2023-02-11T05:41:23;4.40;99.90
3564;DHT22;1796;52.388;13.096;2023-02-11T05:43:50;4.50;99.90
3564;DHT22;1796;52.388;13.096;2023-02-11T05:46:17;4.50;99.90
3564;DHT22;1796;52.388;13.096;2023-02-11T05:48:44;4.50;99.90
3564;DHT22;1796;52.388;13.096;2023-02-11T05:51:12;4.40;99.90
3564;DHT22;1796;52.388;13.096;2023-02-11T05:53:39;4.50;99.90
3564;DHT22;1796;52.388;13.096;2023-02-11T05:56:06;4.50;99.90
3564;DHT22;1796;52.388;13.096;2023-02-11T05:58:33;4.50;99.90
3564;DHT22;1796;52.388;13.096;2023-02-11T06:00:59;4.50;99.90
3564;DHT22;1796;52.388;13.096;2023-02-11T06:03:26;4.50;99.90
3564;DHT22;1796;52.388;13.096;2023-02-11T06:05:53;4.50;99.90
3564;DHT22;1796;52.388;13.096;2023-02-11T06:08:21;4.50;99.90
3564;DHT22;1796;52.388;13.096;2023-02-11T06:10:48;4.60;99.90
3564;DHT22;1796;52.388;13.096;2023-02-11T06:13:15;4.50;99.90
3564;DHT22;1796;52.388;13.096;2023-02-11T06:15:43;4.60;99.90
3564;DHT22;1796;52.388;13.096;2023-02-11T06:18:10;4.60;99.90
3564;DHT22;1796;52.388;13.096;2023-02-11T06:20:37;4.60;99.90
3564;DHT22;1796;52.388;13.096;2023-02-11T06:23:05;4.60;99.90
3564;DHT22;1796;52.388;13.096;2023-02-11T06:25:33;4.60;99.90
3564;DHT22;1796;52.388;13.096;2023-02-11T06:28:11;4.60;99.90
3564;DHT22;1796;52.388;13.096;2023-02-11T06:30:42;4.60;99.90
3564;DHT22;1796;52.388;13.096;2023-02-11T06:33:15;4.60;99.90
3564;DHT22;1796;52.388;13.096;2023-02-11T06:35:45;4.60;99.90
3564;DHT22;1796;52.388;13.096;2023-02-11T06:38:12;4.50;99.90
3564;DHT22;1796;52.388;13.096;2023-02-11T06:40:46;4.50;99.90
3564;DHT22;1796;52.388;13.096;2023-02-11T06:43:13;4.50;99.90
3564;DHT22;1796;52.388;13.096;2023-02-11T06:45:44;4.40;99.90
3564;DHT22;1796;52.388;13.096;2023-02-11T06:48:17;4.50;99.90
3564;DHT22;1796;52.388;13.096;2023-02-11T06:50:44;4.60;99.90
3564;DHT22;1796;52.388;13.096;2023-02-11T06:53:11;4.50;99.90
3564;DHT22;1796;52.388;13.096;2023-02-11T06:55:38;4.50;99.90
3564;DHT22;1796;52.388;13.096;2023-02-11T06:58:09;4.50;99.90
3564;DHT22;1796;52.388;13.096;2023-02-11T07:00:37;4.50;99.90
3564;DHT22;1796;52.388;13.096;2023-02-11T07:03:04;4.60;99.90
3564;DHT22;1796;52.388;13.096;2023-02-11T07:05:31;4.60;99.90
3564;DHT22;1796;52.388;13.096;2023-02-11T07:08:01;4.70;99.90
3564;DHT22;1796;52.388;13.096;2023-02-11T07:10:30;4.60;99.90
3564;DHT22;1796;52.388;13.096;2023-02-11T07:12:57;4.80;99.90
3564;DHT22;1796;52.388;13.096;2023-02-11T07:15:35;4.80;99.90
3564;DHT22;1796;52.388;13.096;2023-02-11T07:18:02;4.90;99.90
3564;DHT22;1796;52.388;13.096;2023-02-11T07:20:29;4.90;99.90
3564;DHT22;1796;52.388;13.096;2023-02-11T07:23:00;5.00;99.90
3564;DHT22;1796;52.388;13.096;2023-02-11T07:25:27;5.00;99.90
3564;DHT22;1796;52.388;13.096;2023-02-11T07:27:57;5.00;99.90
3564;DHT22;1796;52.388;13.096;2023-02-11T07:30:24;5.10;99.90
3564;DHT22;1796;52.388;13.096;2023-02-11T07:32:55;5.10;99.90
3564;DHT22;1796;52.388;13.096;2023-02-11T07:35:22;5.20;99.90
3564;DHT22;1796;52.388;13.096;2023-02-11T07:37:49;5.20;99.90
3564;DHT22;1796;52.388;13.096;2023-02-11T07:40:16;5.30;99.90
3564;DHT22;1796;52.388;13.096;2023-02-11T07:42:43;5.30;99.90
3564;DHT22;1796;52.388;13.096;2023-02-11T07:45:10;5.40;99.90
3564;DHT22;1796;52.388;13.096;2023-02-11T07:47:38;5.40;99.90
3564;DHT22;1796;52.388;13.096;2023-02-11T07:50:08;5.40;99.90
3564;DHT22;1796;52.388;13.096;2023-02-11T07:52:35;5.50;99.90
3564;DHT22;1796;52.388;13.096;2023-02-11T07:55:03;5.60;99.90
3564;DHT22;1796;52.388;13.096;2023-02-11T07:57:29;5.60;99.90
3564;DHT22;1796;52.388;13.096;2023-02-11T07:59:56;5.60;99.90
3564;DHT22;1796;52.388;13.096;2023-02-11T08:02:23;5.70;99.90
3564;DHT22;1796;52.388;13.096;2023-02-11T08:04:50;5.70;99.90
3564;DHT22;1796;52.388;13.096;2023-02-11T08:07:18;5.80;99.90
3564;DHT22;1796;52.388;13.096;2023-02-11T08:09:45;5.80;99.90
3564;DHT22;1796;52.388;13.096;2023-02-11T08:12:12;5.80;99.90
3564;DHT22;1796;52.388;13.096;2023-02-11T08:14:39;5.80;99.90
3564;DHT22;1796;52.388;13.096;2023-02-11T08:17:06;5.80;99.90
3564;DHT22;1796;52.388;13.096;2023-02-11T08:19:33;5.90;99.90
3564;DHT22;1796;52.388;13.096;2023-02-11T08:22:00;5.90;99.90
3564;DHT22;1796;52.388;13.096;2023-02-11T08:24:28;6.00;99.90
3564;DHT22;1796;52.388;13.096;2023-02-11T08:26:55;6.00;99.90
3564;DHT22;1796;52.388;13.096;2023-02-11T08:29:21;5.90;99.90
3564;DHT22;1796;52.388;13.096;2023-02-11T08:31:49;6.00;99.90
3564;DHT22;1796;52.388;13.096;2023-02-11T08:34:16;6.00;99.90
3564;DHT22;1796;52.388;13.096;2023-02-11T08:36:44;6.10;99.90
3564;DHT22;1796;52.388;13.096;2023-02-11T08:39:13;6.10;99.90
3564;DHT22;1796;52.388;13.096;2023-02-11T08:41:42;6.00;99.90
3564;DHT22;1796;52.388;13.096;2023-02-11T08:44:09;6.00;99.90
3564;DHT22;1796;52.388;13.096;2023-02-11T08:46:36;6.00;99.90
3564;DHT22;1796;52.388;13.096;2023-02-11T08:49:03;6.00;99.90
3564;DHT22;1796;52.388;13.096;2023-02-11T08:51:30;6.00;99.90
3564;DHT22;1796;52.388;13.096;2023-02-11T08:53:58;6.10;99.90
3564;DHT22;1796;52.388;13.096;2023-02-11T08:56:25;6.10;99.90
3564;DHT22;1796;52.388;13.096;2023-02-11T08:58:54;6.10;99.90
3564;DHT22;1796;52.388;13.096;2023-02-11T09:01:22;6.10;99.90
3564;DHT22;1796;52.388;13.096;2023-02-11T09:03:50;6.10;99.90
3564;DHT22;1796;52.388;13.096;2023-02-11T09:06:17;6.20;99.90
3564;DHT22;1796;52.388;13.096;2023-02-11T09:08:47;6.20;99.90
3564;DHT22;1796;52.388;13.096;2023-02-11T09:11:15;6.10;99.90
3564;DHT22;1796;52.388;13.096;2023-02-11T09:13:43;6.20;99.90
3564;DHT22;1796;52.388;13.096;2023-02-11T09:16:18;6.20;99.90
3564;DHT22;1796;52.388;13.096;2023-02-11T09:18:46;6.20;99.90
3564;DHT22;1796;52.388;13.096;2023-02-11T09:21:14;6.30;99.90
3564;DHT22;1796;52.388;13.096;2023-02-11T09:23:41;6.40;99.90
3564;DHT22;1796;52.388;13.096;2023-02-11T09:26:12;6.40;99.90
3564;DHT22;1796;52.388;13.096;2023-02-11T09:28:40;6.40;99.90
3564;DHT22;1796;52.388;13.096;2023-02-11T09:31:08;6.40;99.90
3564;DHT22;1796;52.388;13.096;2023-02-11T09:33:38;6.40;99.90
3564;DHT22;1796;52.388;13.096;2023-02-11T09:36:07;6.40;99.90
3564;DHT22;1796;52.388;13.096;2023-02-11T09:38:34;6.40;99.90
3564;DHT22;1796;52.388;13.096;2023-02-11T09:41:01;6.50;99.90
3564;DHT22;1796;52.388;13.096;2023-02-11T09:43:35;6.60;99.90
3564;DHT22;1796;52.388;13.096;2023-02-11T09:46:05;6.60;99.90
3564;DHT22;1796;52.388;13.096;2023-02-11T09:48:38;6.60;99.90
3564;DHT22;1796;52.388;13.096;2023-02-11T09:51:15;6.60;99.90
3564;DHT22;1796;52.388;13.096;2023-02-11T09:53:44;6.60;99.90
3564;DHT22;1796;52.388;13.096;2023-02-11T09:56:14;6.60;99.90
3564;DHT22;1796;52.388;13.096;2023-02-11T09:58:42;6.60;99.90
3564;DHT22;1796;52.388;13.096;2023-02-11T10:01:18;6.70;99.90
3564;DHT22;1796;52.388;13.096;2023-02-11T10:03:57;6.70;99.90
3564;DHT22;1796;52.388;13.096;2023-02-11T10:06:38;6.80;99.90
3564;DHT22;1796;52.388;13.096;2023-02-11T10:09:26;6.80;99.90
3564;DHT22;1796;52.388;13.096;2023-02-11T10:12:01;6.80;99.90
3564;DHT22;1796;52.388;13.096;2023-02-11T10:14:49;6.80;99.90
3564;DHT22;1796;52.388;13.096;2023-02-11T10:17:24;6.80;99.90
3564;DHT22;1796;52.388;13.096;2023-02-11T10:20:03;6.80;99.90
3564;DHT22;1796;52.388;13.096;2023-02-11T10:22:36;6.80;99.90
3564;DHT22;1796;52.388;13.096;2023-02-11T10:25:17;6.80;99.90
3564;DHT22;1796;52.388;13.096;2023-02-11T10:27:45;6.80;99.90
3564;DHT22;1796;52.388;13.096;2023-02-11T10:30:19;6.70;99.90
3564;DHT22;1796;52.388;13.096;2023-02-11T10:32:50;6.70;99.90
3564;DHT22;1796;52.388;13.096;2023-02-11T10:35:24;6.70;99.90
3564;DHT22;1796;52.388;13.096;2023-02-11T10:37:52;6.70;99.90
3564;DHT22;1796;52.388;13.096;2023-02-11T10:40:21;6.60;99.90
3564;DHT22;1796;52.388;13.096;2023-02-11T10:42:51;6.60;99.90
3564;DHT22;1796;52.388;13.096;2023-02-11T10:45:24;6.60;99.90
3564;DHT22;1796;52.388;13.096;2023-02-11T10:47:51;6.60;99.90
3564;DHT22;1796;52.388;13.096;2023-02-11T10:50:23;6.60;99.90
3564;DHT22;1796;52.388;13.096;2023-02-11T10:52:51;6.60;99.90
3564;DHT22;1796;52.388;13.096;2023-02-11T10:55:19;6.60;99.90
3564;DHT22;1796;52.388;13.096;2023-02-11T10:57:53;6.60;99.90
3564;DHT22;1796;52.388;13.096;2023-02-11T11:00:33;6.60;99.90
3564;DHT22;1796;52.388;13.096;2023-02-11T11:03:04;6.60;99.90
3564;DHT22;1796;52.388;13.096;2023-02-11T11:05:35;6.60;99.90
3564;DHT22;1796;52.388;13.096;2023-02-11T11:08:05;6.60;99.90
3564;DHT22;1796;52.388;13.096;2023-02-11T11:10:37;6.70;99.90
3564;DHT22;1796;52.388;13.096;2023-02-11T11:13:26;6.60;99.90
3564;DHT22;1796;52.388;13.096;2023-02-11T11:16:19;6.60;99.90
3564;DHT22;1796;52.388;13.096;2023-02-11T11:18:48;6.70;99.90
3564;DHT22;1796;52.388;13.096;2023-02-11T11:21:19;6.60;99.90
3564;DHT22;1796;52.388;13.096;2023-02-11T11:23:49;6.60;99.90
3564;DHT22;1796;52.388;13.096;2023-02-11T11:26:17;6.60;99.90
3564;DHT22;1796;52.388;13.096;2023-02-11T11:28:53;6.60;99.90
3564;DHT22;1796;52.388;13.096;2023-02-11T11:31:27;6.60;99.90
3564;DHT22;1796;52.388;13.096;2023-02-11T11:33:57;6.60;99.90
3564;DHT22;1796;52.388;13.096;2023-02-11T11:36:33;6.60;99.90
3564;DHT22;1796;52.388;13.096;2023-02-11T11:39:03;6.50;99.90
3564;DHT22;1796;52.388;13.096;2023-02-11T11:41:49;6.60;99.90
3564;DHT22;1796;52.388;13.096;2023-02-11T11:44:23;6.60;99.90
3564;DHT22;1796;52.388;13.096;2023-02-11T11:47:14;6.50;99.90
3564;DHT22;1796;52.388;13.096;2023-02-11T11:49:48;6.50;99.90
3564;DHT22;1796;52.388;13.096;2023-02-11T11:52:31;6.50;99.90
3564;DHT22;1796;52.388;13.096;2023-02-11T11:55:02;6.50;99.90
3564;DHT22;1796;52.388;13.096;2023-02-11T11:57:31;6.50;99.90
3564;DHT22;1796;52.388;13.096;2023-02-11T12:00:00;6.50;99.90
3564;DHT22;1796;52.388;13.096;2023-02-11T12:03:08;6.60;99.90
3564;DHT22;1796;52.388;13.096;2023-02-11T12:05:51;6.60;99.90
3564;DHT22;1796;52.388;13.096;2023-02-11T12:08:33;6.50;99.90
3564;DHT22;1796;52.388;13.096;2023-02-11T12:11:08;6.60;99.90
3564;DHT22;1796;52.388;13.096;2023-02-11T12:13:45;6.60;99.90
3564;DHT22;1796;52.388;13.096;2023-02-11T12:16:22;6.60;99.90
3564;DHT22;1796;52.388;13.096;2023-02-11T12:19:24;6.60;99.90
3564;DHT22;1796;52.388;13.096;2023-02-11T12:22:03;6.70;99.90
3564;DHT22;1796;52.388;13.096;2023-02-11T12:24:51;6.70;99.90
3564;DHT22;1796;52.388;13.096;2023-02-11T12:27:27;6.70;99.90
3564;DHT22;1796;52.388;13.096;2023-02-11T12:30:06;6.80;99.90
3564;DHT22;1796;52.388;13.096;2023-02-11T12:32:45;6.70;99.90
3564;DHT22;1796;52.388;13.096;2023-02-11T12:35:27;6.80;99.90
3564;DHT22;1796;52.388;13.096;2023-02-11T12:38:10;6.80;99.90
3564;DHT22;1796;52.388;13.096;2023-02-11T12:40:45;6.80;99.90
3564;DHT22;1796;52.388;13.096;2023-02-11T12:43:20;6.90;99.90
3564;DHT22;1796;52.388;13.096;2023-02-11T12:46:07;6.90;99.90
3564;DHT22;1796;52.388;13.096;2023-02-11T12:49:08;7.00;99.90
3564;DHT22;1796;52.388;13.096;2023-02-11T12:51:49;7.00;99.90
3564;DHT22;1796;52.388;13.096;2023-02-11T12:54:22;7.00;99.90
3564;DHT22;1796;52.388;13.096;2023-02-11T12:56:54;7.00;99.90
3564;DHT22;1796;52.388;13.096;2023-02-11T12:59:39;7.10;99.90
3564;DHT22;1796;52.388;13.096;2023-02-11T13:02:17;7.10;99.90
3564;DHT22;1796;52.388;13.096;2023-02-11T13:04:48;7.10;99.90
3564;DHT22;1796;52.388;13.096;2023-02-11T13:07:21;7.10;99.90
3564;DHT22;1796;52.388;13.096;2023-02-11T13:09:54;7.10;99.90
3564;DHT22;1796;52.388;13.096;2023-02-11T13:12:28;7.30;99.90
3564;DHT22;1796;52.388;13.096;2023-02-11T13:15:14;7.10;99.90
3564;DHT22;1796;52.388;13.096;2023-02-11T13:17:47;7.20;99.90
3564;DHT22;1796;52.388;13.096;2023-02-11T13:20:31;7.20;99.90
3564;DHT22;1796;52.388;13.096;2023-02-11T13:23:07;7.20;99.90
3564;DHT22;1796;52.388;13.096;2023-02-11T13:25:42;7.30;99.90
3564;DHT22;1796;52.388;13.096;2023-02-11T13:28:22;7.30;99.90
3564;DHT22;1796;52.388;13.096;2023-02-11T13:30:51;7.30;99.90
3564;DHT22;1796;52.388;13.096;2023-02-11T13:33:31;7.40;99.90
3564;DHT22;1796;52.388;13.096;2023-02-11T13:36:15;7.20;99.90
3564;DHT22;1796;52.388;13.096;2023-02-11T13:38:55;7.20;99.90
3564;DHT22;1796;52.388;13.096;2023-02-11T13:41:32;7.30;99.90
3564;DHT22;1796;52.388;13.096;2023-02-11T13:44:18;7.30;99.90
3564;DHT22;1796;52.388;13.096;2023-02-11T13:46:58;7.30;99.90
3564;DHT22;1796;52.388;13.096;2023-02-11T13:49:32;7.30;99.90
3564;DHT22;1796;52.388;13.096;2023-02-11T13:52:02;7.30;99.90
3564;DHT22;1796;52.388;13.096;2023-02-11T13:54:32;7.30;99.90
3564;DHT22;1796;52.388;13.096;2023-02-11T13:57:24;7.30;99.90
3564;DHT22;1796;52.388;13.096;2023-02-11T13:59:54;7.30;99.90
3564;DHT22;1796;52.388;13.096;2023-02-11T14:02:27;7.40;99.90
3564;DHT22;1796;52.388;13.096;2023-02-11T14:05:23;7.40;99.90
3564;DHT22;1796;52.388;13.096;2023-02-11T14:08:32;7.40;99.90
3564;DHT22;1796;52.388;13.096;2023-02-11T14:11:42;7.60;99.90
3564;DHT22;1796;52.388;13.096;2023-02-11T14:14:23;7.60;99.90
3564;DHT22;1796;52.388;13.096;2023-02-11T14:17:29;7.60;99.90
3564;DHT22;1796;52.388;13.096;2023-02-11T14:19:57;7.50;99.90
3564;DHT22;1796;52.388;13.096;2023-02-11T14:22:26;7.60;99.90
3564;DHT22;1796;52.388;13.096;2023-02-11T14:24:56;7.60;99.90
3564;DHT22;1796;52.388;13.096;2023-02-11T14:27:35;7.60;99.90
3564;DHT22;1796;52.388;13.096;2023-02-11T14:30:31;7.60;99.90
3564;DHT22;1796;52.388;13.096;2023-02-11T14:33:21;7.60;99.90
3564;DHT22;1796;52.388;13.096;2023-02-11T14:35:59;7.70;99.90
3564;DHT22;1796;52.388;13.096;2023-02-11T14:38:38;7.60;99.90
3564;DHT22;1796;52.388;13.096;2023-02-11T14:41:12;7.70;99.90
3564;DHT22;1796;52.388;13.096;2023-02-11T14:43:44;7.70;99.90
3564;DHT22;1796;52.388;13.096;2023-02-11T14:46:14;7.70;99.90
3564;DHT22;1796;52.388;13.096;2023-02-11T14:48:45;7.70;99.90
3564;DHT22;1796;52.388;13.096;2023-02-11T14:51:16;7.60;99.90
3564;DHT22;1796;52.388;13.096;2023-02-11T14:53:46;7.60;99.90
3564;DHT22;1796;52.388;13.096;2023-02-11T14:56:20;7.60;99.90
3564;DHT22;1796;52.388;13.096;2023-02-11T14:58:50;7.50;99.90
3564;DHT22;1796;52.388;13.096;2023-02-11T15:01:27;7.60;99.90
3564;DHT22;1796;52.388;13.096;2023-02-11T15:03:57;7.60;99.90
3564;DHT22;1796;52.388;13.096;2023-02-11T15:06:28;7.50;99.90
3564;DHT22;1796;52.388;13.096;2023-02-11T15:08:58;7.50;99.90
3564;DHT22;1796;52.388;13.096;2023-02-11T15:11:28;7.40;99.90
3564;DHT22;1796;52.388;13.096;2023-02-11T15:13:59;7.40;99.90
3564;DHT22;1796;52.388;13.096;2023-02-11T15:16:28;7.40;99.90
3564;DHT22;1796;52.388;13.096;2023-02-11T15:19:00;7.40;99.90
3564;DHT22;1796;52.388;13.096;2023-02-11T15:21:29;7.40;99.90
3564;DHT22;1796;52.388;13.096;2023-02-11T15:23:59;7.40;99.90
3564;DHT22;1796;52.388;13.096;2023-02-11T15:26:26;7.40;99.90
3564;DHT22;1796;52.388;13.096;2023-02-11T15:28:53;7.30;99.90
3564;DHT22;1796;52.388;13.096;2023-02-11T15:31:22;7.30;99.90
3564;DHT22;1796;52.388;13.096;2023-02-11T15:33:49;7.30;99.90
3564;DHT22;1796;52.388;13.096;2023-02-11T15:36:20;7.20;99.90
3564;DHT22;1796;52.388;13.096;2023-02-11T15:39:19;7.20;99.90
3564;DHT22;1796;52.388;13.096;2023-02-11T15:41:54;7.20;99.90
3564;DHT22;1796;52.388;13.096;2023-02-11T15:44:28;7.20;99.90
3564;DHT22;1796;52.388;13.096;2023-02-11T15:46:56;7.30;99.90
3564;DHT22;1796;52.388;13.096;2023-02-11T15:49:24;7.10;99.90
3564;DHT22;1796;52.388;13.096;2023-02-11T15:51:53;7.20;99.90
3564;DHT22;1796;52.388;13.096;2023-02-11T15:54:22;7.20;99.90
3564;DHT22;1796;52.388;13.096;2023-02-11T15:56:58;7.10;99.90
3564;DHT22;1796;52.388;13.096;2023-02-11T15:59:28;7.20;99.90
3564;DHT22;1796;52.388;13.096;2023-02-11T16:02:03;7.20;99.90
3564;DHT22;1796;52.388;13.096;2023-02-11T16:04:31;7.10;99.90
3564;DHT22;1796;52.388;13.096;2023-02-11T16:06:59;7.20;99.90
3564;DHT22;1796;52.388;13.096;2023-02-11T16:09:32;7.10;99.90
3564;DHT22;1796;52.388;13.096;2023-02-11T16:12:02;7.10;99.90
3564;DHT22;1796;52.388;13.096;2023-02-11T16:14:34;7.10;99.90
3564;DHT22;1796;52.388;13.096;2023-02-11T16:17:06;7.10;99.90
3564;DHT22;1796;52.388;13.096;2023-02-11T16:19:34;7.10;99.90
3564;DHT22;1796;52.388;13.096;2023-02-11T16:22:09;7.10;99.90
3564;DHT22;1796;52.388;13.096;2023-02-11T16:24:37;7.10;99.90
3564;DHT22;1796;52.388;13.096;2023-02-11T16:27:13;7.10;99.90
3564;DHT22;1796;52.388;13.096;2023-02-11T16:29:44;7.10;99.90
3564;DHT22;1796;52.388;13.096;2023-02-11T16:32:16;7.10;99.90
3564;DHT22;1796;52.388;13.096;2023-02-11T16:34:43;7.10;99.90